sensor_id;sensor_type;location;lat;lon;timestamp;pressure;altitude;pressure_sealevel;temperature;humidity
64544;BME280;50936;51.660;5.616;2023-02-14T00:01:09;103090.28;;;4.08;100.00
64544;BME280;50936;51.660;5.616;2023-02-14T00:03:38;103089.38;;;4.08;100.00
64544;BME280;50936;51.660;5.616;2023-02-14T00:06:10;103092.94;;;4.08;100.00
64544;BME280;50936;51.660;5.616;2023-02-14T00:08:39;103099.22;;;4.09;100.00
64544;BME280;50936;51.660;5.616;2023-02-14T00:11:11;103092.06;;;4.06;100.00
64544;BME280;50936;51.660;5.616;2023-02-14T00:13:38;103098.34;;;4.05;100.00
64544;BME280;50936;51.660;5.616;2023-02-14T00:16:05;103089.44;;;4.03;100.00
64544;BME280;50936;51.660;5.616;2023-02-14T00:18:32;103091.19;;;4.01;100.00
64544;BME280;50936;51.660;5.616;2023-02-14T00:21:18;103086.78;;;3.97;100.00
64544;BME280;50936;51.660;5.616;2023-02-14T00:23:45;103091.25;;;3.93;100.00
64544;BME280;50936;51.660;5.616;2023-02-14T00:26:13;103085.94;;;3.90;100.00
64544;BME280;50936;51.660;5.616;2023-02-14T00:28:41;103081.50;;;3.84;100.00
64544;BME280;50936;51.660;5.616;2023-02-14T00:31:08;103079.75;;;3.80;100.00
64544;BME280;50936;51.660;5.616;2023-02-14T00:33:35;103073.53;;;3.77;100.00
64544;BME280;50936;51.660;5.616;2023-02-14T00:36:04;103081.53;;;3.75;100.00
64544;BME280;50936;51.660;5.616;2023-02-14T00:38:32;103082.47;;;3.74;100.00
64544;BME280;50936;51.660;5.616;2023-02-14T00:41:00;103074.44;;;3.74;100.00
64544;BME280;50936;51.660;5.616;2023-02-14T00:43:27;103080.66;;;3.72;100.00
64544;BME280;50936;51.660;5.616;2023-02-14T00:45:55;103071.78;;;3.70;100.00
64544;BME280;50936;51.660;5.616;2023-02-14T00:48:23;103066.47;;;3.65;100.00
64544;BME280;50936;51.660;5.616;2023-02-14T00:50:49;103071.81;;;3.60;100.00
64544;BME280;50936;51.660;5.616;2023-02-14T00:53:16;103065.59;;;3.57;100.00
64544;BME280;50936;51.660;5.616;2023-02-14T00:55:44;103069.19;;;3.53;100.00
64544;BME280;50936;51.660;5.616;2023-02-14T00:58:13;103067.41;;;3.52;100.00
64544;BME280;50936;51.660;5.616;2023-02-14T01:00:40;103071.88;;;3.51;100.00
64544;BME280;50936;51.660;5.616;2023-02-14T01:03:07;103065.66;;;3.47;100.00
64544;BME280;50936;51.660;5.616;2023-02-14T01:05:34;103075.44;;;3.45;100.00
64544;BME280;50936;51.660;5.616;2023-02-14T01:08:03;103072.81;;;3.39;100.00
64544;BME280;50936;51.660;5.616;2023-02-14T01:10:30;103072.81;;;3.36;100.00
64544;BME280;50936;51.660;5.616;2023-02-14T01:12:58;103072.84;;;3.30;100.00
64544;BME280;50936;51.660;5.616;2023-02-14T01:15:27;103063.97;;;3.25;100.00
64544;BME280;50936;51.660;5.616;2023-02-14T01:17:56;103064.88;;;3.22;100.00
64544;BME280;50936;51.660;5.616;2023-02-14T01:20:24;103064.00;;;3.19;100.00
64544;BME280;50936;51.660;5.616;2023-02-14T01:22:52;103068.41;;;3.18;100.00
64544;BME280;50936;51.660;5.616;2023-02-14T01:25:19;103068.41;;;3.17;100.00
64544;BME280;50936;51.660;5.616;2023-02-14T01:27:46;103069.31;;;3.13;100.00
64544;BME280;50936;51.660;5.616;2023-02-14T01:30:13;103060.44;;;3.07;100.00
64544;BME280;50936;51.660;5.616;2023-02-14T01:32:40;103062.25;;;3.02;100.00
64544;BME280;50936;51.660;5.616;2023-02-14T01:35:08;103073.81;;;2.98;100.00
64544;BME280;50936;51.660;5.616;2023-02-14T01:37:35;103073.84;;;2.94;100.00
64544;BME280;50936;51.660;5.616;2023-02-14T01:40:05;103072.03;;;2.94;100.00
64544;BME280;50936;51.660;5.616;2023-02-14T01:42:36;103071.16;;;2.95;100.00
64544;BME280;50936;51.660;5.616;2023-02-14T01:45:08;103072.03;;;2.94;100.00
64544;BME280;50936;51.660;5.616;2023-02-14T01:47:48;103066.69;;;2.91;100.00
64544;BME280;50936;51.660;5.616;2023-02-14T01:50:29;103070.28;;;2.92;100.00
64544;BME280;50936;51.660;5.616;2023-02-14T01:53:16;103071.16;;;2.91;100.00
64544;BME280;50936;51.660;5.616;2023-02-14T01:55:55;103074.72;;;2.91;100.00
64544;BME280;50936;51.660;5.616;2023-02-14T01:58:28;103070.28;;;2.92;100.00
64544;BME280;50936;51.660;5.616;2023-02-14T02:01:02;103067.59;;;2.95;100.00
64544;BME280;50936;51.660;5.616;2023-02-14T02:03:38;103070.25;;;2.99;100.00
64544;BME280;50936;51.660;5.616;2023-02-14T02:06:16;103068.44;;;3.07;100.00
64544;BME280;50936;51.660;5.616;2023-02-14T02:08:58;103062.22;;;3.12;100.00
64544;BME280;50936;51.660;5.616;2023-02-14T02:11:42;103061.31;;;3.16;100.00
64544;BME280;50936;51.660;5.616;2023-02-14T02:14:15;103053.31;;;3.13;100.00
64544;BME280;50936;51.660;5.616;2023-02-14T02:35:00;103041.78;;;3.03;100.00
64544;BME280;50936;51.660;5.616;2023-02-14T02:41:03;103038.22;;;3.02;100.00
64544;BME280;50936;51.660;5.616;2023-02-14T02:46:31;103037.31;;;3.10;100.00
64544;BME280;50936;51.660;5.616;2023-02-14T02:55:49;103043.59;;;2.93;100.00
64544;BME280;50936;51.660;5.616;2023-02-14T02:58:49;103048.03;;;2.88;100.00
64544;BME280;50936;51.660;5.616;2023-02-14T03:01:24;103052.50;;;2.86;100.00
64544;BME280;50936;51.660;5.616;2023-02-14T03:03:59;103049.84;;;2.86;100.00
64544;BME280;50936;51.660;5.616;2023-02-14T03:06:50;103049.84;;;2.86;100.00
64544;BME280;50936;51.660;5.616;2023-02-14T03:11:54;103048.03;;;2.82;100.00
64544;BME280;50936;51.660;5.616;2023-02-14T03:14:56;103047.19;;;2.75;100.00
64544;BME280;50936;51.660;5.616;2023-02-14T03:20:54;103051.63;;;2.72;100.00
64544;BME280;50936;51.660;5.616;2023-02-14T03:23:30;103043.59;;;2.75;100.00
64544;BME280;50936;51.660;5.616;2023-02-14T03:28:58;103050.72;;;2.86;100.00
64544;BME280;50936;51.660;5.616;2023-02-14T03:34:44;103048.91;;;2.99;100.00
64544;BME280;50936;51.660;5.616;2023-02-14T03:37:11;103055.09;;;3.07;100.00
64544;BME280;50936;51.660;5.616;2023-02-14T03:39:44;103051.53;;;3.08;100.00
64544;BME280;50936;51.660;5.616;2023-02-14T03:42:32;103052.47;;;3.06;100.00
64544;BME280;50936;51.660;5.616;2023-02-14T03:45:07;103049.75;;;3.07;100.00
64544;BME280;50936;51.660;5.616;2023-02-14T03:47:38;103049.78;;;3.04;100.00
64544;BME280;50936;51.660;5.616;2023-02-14T03:50:18;103050.66;;;3.08;100.00
64544;BME280;50936;51.660;5.616;2023-02-14T03:52:49;103050.66;;;3.06;100.00
64544;BME280;50936;51.660;5.616;2023-02-14T03:55:26;103044.41;;;3.07;100.00
64544;BME280;50936;51.660;5.616;2023-02-14T03:58:26;103043.53;;;3.07;100.00
64544;BME280;50936;51.660;5.616;2023-02-14T04:01:09;103040.91;;;3.02;100.00
64544;BME280;50936;51.660;5.616;2023-02-14T04:03:45;103042.66;;;3.03;100.00
64544;BME280;50936;51.660;5.616;2023-02-14T04:06:16;103042.66;;;3.00;100.00
64544;BME280;50936;51.660;5.616;2023-02-14T04:08:44;103045.31;;;3.00;100.00
64544;BME280;50936;51.660;5.616;2023-02-14T04:11:11;103052.44;;;3.00;100.00
64544;BME280;50936;51.660;5.616;2023-02-14T04:13:38;103051.56;;;2.99;100.00
64544;BME280;50936;51.660;5.616;2023-02-14T04:16:05;103049.78;;;2.98;100.00
64544;BME280;50936;51.660;5.616;2023-02-14T04:18:32;103054.25;;;2.95;100.00
64544;BME280;50936;51.660;5.616;2023-02-14T04:21:19;103056.94;;;2.87;100.00
64544;BME280;50936;51.660;5.616;2023-02-14T04:23:46;103041.81;;;2.84;100.00
64544;BME280;50936;51.660;5.616;2023-02-14T04:26:13;103043.59;;;2.81;100.00
64544;BME280;50936;51.660;5.616;2023-02-14T04:28:40;103048.94;;;2.76;100.00
64544;BME280;50936;51.660;5.616;2023-02-14T04:31:07;103048.06;;;2.76;100.00
64544;BME280;50936;51.660;5.616;2023-02-14T04:33:36;103045.38;;;2.74;100.00
64544;BME280;50936;51.660;5.616;2023-02-14T04:36:04;103045.41;;;2.77;100.00
64544;BME280;50936;51.660;5.616;2023-02-14T04:38:32;103046.28;;;2.76;100.00
64544;BME280;50936;51.660;5.616;2023-02-14T04:40:59;103038.28;;;2.73;100.00
64544;BME280;50936;51.660;5.616;2023-02-14T04:43:26;103047.19;;;2.67;100.00
64544;BME280;50936;51.660;5.616;2023-02-14T04:45:54;103042.75;;;2.60;100.00
64544;BME280;50936;51.660;5.616;2023-02-14T04:48:21;103040.97;;;2.59;100.00
64544;BME280;50936;51.660;5.616;2023-02-14T04:50:54;103033.84;;;2.58;100.00
64544;BME280;50936;51.660;5.616;2023-02-14T04:53:21;103035.63;;;2.59;100.00
64544;BME280;50936;51.660;5.616;2023-02-14T04:55:48;103025.84;;;2.63;100.00
64544;BME280;50936;51.660;5.616;2023-02-14T04:58:16;103024.06;;;2.59;100.00
64544;BME280;50936;51.660;5.616;2023-02-14T05:00:43;103030.28;;;2.56;100.00
64544;BME280;50936;51.660;5.616;2023-02-14T05:03:10;103032.06;;;2.56;100.00
64544;BME280;50936;51.660;5.616;2023-02-14T05:05:37;103026.75;;;2.51;100.00
64544;BME280;50936;51.660;5.616;2023-02-14T05:08:04;103021.41;;;2.51;100.00
64544;BME280;50936;51.660;5.616;2023-02-14T05:10:30;103021.41;;;2.51;100.00
64544;BME280;50936;51.660;5.616;2023-02-14T05:12:59;103020.50;;;2.49;100.00
64544;BME280;50936;51.660;5.616;2023-02-14T05:15:26;103018.75;;;2.45;100.00
64544;BME280;50936;51.660;5.616;2023-02-14T05:17:53;103016.09;;;2.40;100.00
64544;BME280;50936;51.660;5.616;2023-02-14T05:20:20;103015.19;;;2.35;100.00
64544;BME280;50936;51.660;5.616;2023-02-14T05:22:47;103013.41;;;2.34;100.00
64544;BME280;50936;51.660;5.616;2023-02-14T05:25:14;103005.41;;;2.36;100.00
64544;BME280;50936;51.660;5.616;2023-02-14T05:27:40;103012.53;;;2.34;100.00
64544;BME280;50936;51.660;5.616;2023-02-14T05:30:08;103010.72;;;2.33;100.00
64544;BME280;50936;51.660;5.616;2023-02-14T05:32:35;103010.72;;;2.33;100.00
64544;BME280;50936;51.660;5.616;2023-02-14T05:35:03;103008.97;;;2.28;100.00
64544;BME280;50936;51.660;5.616;2023-02-14T05:37:30;103006.31;;;2.25;100.00
64544;BME280;50936;51.660;5.616;2023-02-14T05:39:57;103005.41;;;2.23;100.00
64544;BME280;50936;51.660;5.616;2023-02-14T05:42:23;103010.75;;;2.20;100.00
64544;BME280;50936;51.660;5.616;2023-02-14T05:44:50;103008.06;;;2.16;100.00
64544;BME280;50936;51.660;5.616;2023-02-14T05:47:17;103014.31;;;2.13;100.00
64544;BME280;50936;51.660;5.616;2023-02-14T05:49:44;103013.44;;;2.13;100.00
64544;BME280;50936;51.660;5.616;2023-02-14T05:52:11;103010.75;;;2.14;100.00
64544;BME280;50936;51.660;5.616;2023-02-14T05:54:38;103016.09;;;2.11;100.00
64544;BME280;50936;51.660;5.616;2023-02-14T05:57:04;103013.41;;;2.08;100.00
64544;BME280;50936;51.660;5.616;2023-02-14T05:59:31;103012.53;;;2.06;100.00
64544;BME280;50936;51.660;5.616;2023-02-14T06:01:58;103016.09;;;2.08;100.00
64544;BME280;50936;51.660;5.616;2023-02-14T06:04:25;103012.53;;;2.06;100.00
64544;BME280;50936;51.660;5.616;2023-02-14T06:06:52;103012.50;;;2.03;100.00
64544;BME280;50936;51.660;5.616;2023-02-14T06:09:19;103021.38;;;1.96;100.00
64544;BME280;50936;51.660;5.616;2023-02-14T06:11:46;103018.72;;;1.88;100.00
64544;BME280;50936;51.660;5.616;2023-02-14T06:14:13;103016.91;;;1.79;100.00
64544;BME280;50936;51.660;5.616;2023-02-14T06:16:39;103016.03;;;1.71;100.00
64544;BME280;50936;51.660;5.616;2023-02-14T06:19:06;103026.66;;;1.65;100.00
64544;BME280;50936;51.660;5.616;2023-02-14T06:21:33;103023.09;;;1.63;100.00
64544;BME280;50936;51.660;5.616;2023-02-14T06:24:00;103020.44;;;1.63;100.00
64544;BME280;50936;51.660;5.616;2023-02-14T06:26:27;103032.00;;;1.71;100.00
64544;BME280;50936;51.660;5.616;2023-02-14T06:28:56;103028.47;;;1.78;100.00
64544;BME280;50936;51.660;5.616;2023-02-14T06:31:24;103034.69;;;1.80;100.00
64544;BME280;50936;51.660;5.616;2023-02-14T06:33:52;103035.59;;;1.82;100.00
64544;BME280;50936;51.660;5.616;2023-02-14T06:36:20;103030.28;;;1.85;100.00
64544;BME280;50936;51.660;5.616;2023-02-14T06:38:48;103026.69;;;1.85;100.00
64544;BME280;50936;51.660;5.616;2023-02-14T06:41:15;103030.28;;;1.87;100.00
64544;BME280;50936;51.660;5.616;2023-02-14T06:43:44;103030.25;;;1.88;100.00
64544;BME280;50936;51.660;5.616;2023-02-14T06:46:16;103035.59;;;1.91;100.00
64544;BME280;50936;51.660;5.616;2023-02-14T06:48:44;103034.72;;;1.97;100.00
64544;BME280;50936;51.660;5.616;2023-02-14T06:51:12;103040.94;;;1.98;100.00
64544;BME280;50936;51.660;5.616;2023-02-14T06:53:39;103039.19;;;2.04;100.00
64544;BME280;50936;51.660;5.616;2023-02-14T06:56:06;103037.38;;;2.05;100.00
64544;BME280;50936;51.660;5.616;2023-02-14T06:58:33;103042.75;;;2.08;100.00
64544;BME280;50936;51.660;5.616;2023-02-14T07:01:00;103041.84;;;2.10;100.00
64544;BME280;50936;51.660;5.616;2023-02-14T07:03:27;103033.84;;;2.12;100.00
64544;BME280;50936;51.660;5.616;2023-02-14T07:05:56;103045.41;;;2.20;100.00
64544;BME280;50936;51.660;5.616;2023-02-14T07:08:24;103040.09;;;2.20;100.00
64544;BME280;50936;51.660;5.616;2023-02-14T07:10:58;103040.97;;;2.22;100.00
64544;BME280;50936;51.660;5.616;2023-02-14T07:13:25;103041.84;;;2.21;100.00
64544;BME280;50936;51.660;5.616;2023-02-14T07:15:52;103042.75;;;2.17;100.00
64544;BME280;50936;51.660;5.616;2023-02-14T07:18:19;103042.75;;;2.17;100.00
64544;BME280;50936;51.660;5.616;2023-02-14T07:20:46;103042.75;;;2.17;100.00
64544;BME280;50936;51.660;5.616;2023-02-14T07:23:14;103042.75;;;2.20;100.00
64544;BME280;50936;51.660;5.616;2023-02-14T07:25:41;103051.66;;;2.22;100.00
64544;BME280;50936;51.660;5.616;2023-02-14T07:28:08;103049.84;;;2.24;100.00
64544;BME280;50936;51.660;5.616;2023-02-14T07:30:35;103042.75;;;2.23;100.00
64544;BME280;50936;51.660;5.616;2023-02-14T07:33:02;103049.84;;;2.24;100.00
64544;BME280;50936;51.660;5.616;2023-02-14T07:35:29;103054.31;;;2.24;100.00
64544;BME280;50936;51.660;5.616;2023-02-14T07:37:56;103060.53;;;2.24;100.00
64544;BME280;50936;51.660;5.616;2023-02-14T07:40:23;103053.41;;;2.23;100.00
64544;BME280;50936;51.660;5.616;2023-02-14T07:42:55;103048.97;;;2.28;100.00
64544;BME280;50936;51.660;5.616;2023-02-14T07:45:24;103049.88;;;2.34;100.00
64544;BME280;50936;51.660;5.616;2023-02-14T07:47:52;103050.75;;;2.39;100.00
64544;BME280;50936;51.660;5.616;2023-02-14T07:50:21;103056.09;;;2.39;100.00
64544;BME280;50936;51.660;5.616;2023-02-14T07:52:49;103051.63;;;2.38;100.00
64544;BME280;50936;51.660;5.616;2023-02-14T07:55:16;103048.97;;;2.36;100.00
64544;BME280;50936;51.660;5.616;2023-02-14T07:57:46;103049.88;;;2.37;100.00
64544;BME280;50936;51.660;5.616;2023-02-14T08:00:15;103039.19;;;2.40;100.00
64544;BME280;50936;51.660;5.616;2023-02-14T08:02:45;103040.09;;;2.40;100.00
64544;BME280;50936;51.660;5.616;2023-02-14T08:05:12;103048.97;;;2.47;100.00
64544;BME280;50936;51.660;5.616;2023-02-14T08:07:40;103037.41;;;2.56;100.00
64544;BME280;50936;51.660;5.616;2023-02-14T08:10:09;103038.28;;;2.61;100.00
64544;BME280;50936;51.660;5.616;2023-02-14T08:12:39;103033.84;;;2.63;100.00
64544;BME280;50936;51.660;5.616;2023-02-14T08:15:29;103028.50;;;2.64;100.00
64544;BME280;50936;51.660;5.616;2023-02-14T08:18:20;103029.41;;;2.66;100.00
64544;BME280;50936;51.660;5.616;2023-02-14T08:20:52;103031.16;;;2.69;100.00
64544;BME280;50936;51.660;5.616;2023-02-14T08:23:20;103024.06;;;2.69;100.00
64544;BME280;50936;51.660;5.616;2023-02-14T08:25:48;103035.59;;;2.78;100.00
64544;BME280;50936;51.660;5.616;2023-02-14T08:28:16;103029.34;;;2.88;100.00
64544;BME280;50936;51.660;5.616;2023-02-14T08:30:44;103032.00;;;2.94;100.00
64544;BME280;50936;51.660;5.616;2023-02-14T08:33:11;103040.00;;;3.03;100.00
64544;BME280;50936;51.660;5.616;2023-02-14T08:35:38;103036.44;;;3.04;100.00
64544;BME280;50936;51.660;5.616;2023-02-14T08:38:05;103042.63;;;3.16;100.00
64544;BME280;50936;51.660;5.616;2023-02-14T08:40:33;103045.25;;;3.25;100.00
64544;BME280;50936;51.660;5.616;2023-02-14T08:43:03;103045.22;;;3.36;100.00
64544;BME280;50936;51.660;5.616;2023-02-14T08:45:31;103046.09;;;3.36;100.00
64544;BME280;50936;51.660;5.616;2023-02-14T08:48:03;103046.09;;;3.36;100.00
64544;BME280;50936;51.660;5.616;2023-02-14T08:50:33;103042.50;;;3.43;100.00
64544;BME280;50936;51.660;5.616;2023-02-14T08:53:03;103046.06;;;3.49;100.00
64544;BME280;50936;51.660;5.616;2023-02-14T08:55:33;103039.78;;;3.56;100.00
64544;BME280;50936;51.660;5.616;2023-02-14T08:58:01;103041.56;;;3.58;100.00
64544;BME280;50936;51.660;5.616;2023-02-14T09:00:30;103045.09;;;3.60;100.00
64544;BME280;50936;51.660;5.616;2023-02-14T09:02:59;103041.50;;;3.64;100.00
64544;BME280;50936;51.660;5.616;2023-02-14T09:05:26;103045.94;;;3.72;100.00
64544;BME280;50936;51.660;5.616;2023-02-14T09:07:53;103038.78;;;3.78;100.00
64544;BME280;50936;51.660;5.616;2023-02-14T09:10:23;103044.06;;;3.88;100.00
64544;BME280;50936;51.660;5.616;2023-02-14T09:12:50;103040.47;;;3.92;100.00
64544;BME280;50936;51.660;5.616;2023-02-14T09:15:18;103042.19;;;3.99;100.00
64544;BME280;50936;51.660;5.616;2023-02-14T09:17:45;103039.50;;;4.05;100.00
64544;BME280;50936;51.660;5.616;2023-02-14T09:20:14;103038.56;;;4.12;100.00
64544;BME280;50936;51.660;5.616;2023-02-14T09:22:41;103042.06;;;4.20;100.00
64544;BME280;50936;51.660;5.616;2023-02-14T09:25:09;103038.41;;;4.31;100.00
64544;BME280;50936;51.660;5.616;2023-02-14T09:27:36;103039.22;;;4.39;100.00
64544;BME280;50936;51.660;5.616;2023-02-14T09:30:05;103040.94;;;4.49;100.00
64544;BME280;50936;51.660;5.616;2023-02-14T09:32:33;103036.28;;;4.67;100.00
64544;BME280;50936;51.660;5.616;2023-02-14T09:35:00;103038.88;;;4.74;100.00
64544;BME280;50936;51.660;5.616;2023-02-14T09:37:27;103030.81;;;4.82;100.00
64544;BME280;50936;51.660;5.616;2023-02-14T09:40:15;103026.22;;;4.92;100.00
64544;BME280;50936;51.660;5.616;2023-02-14T09:43:03;103034.25;;;4.93;100.00
64544;BME280;50936;51.660;5.616;2023-02-14T09:45:53;103026.13;;;5.03;100.00
64544;BME280;50936;51.660;5.616;2023-02-14T09:48:33;103026.84;;;5.17;100.00
64544;BME280;50936;51.660;5.616;2023-02-14T09:51:09;103023.09;;;5.30;100.00
64544;BME280;50936;51.660;5.616;2023-02-14T09:53:49;103015.00;;;5.35;100.00
64544;BME280;50936;51.660;5.616;2023-02-14T09:56:31;103022.94;;;5.43;100.00
64544;BME280;50936;51.660;5.616;2023-02-14T09:59:35;103020.13;;;5.53;100.00
64544;BME280;50936;51.660;5.616;2023-02-14T10:10:21;103016.22;;;5.77;100.00
64544;BME280;50936;51.660;5.616;2023-02-14T10:21:38;103023.00;;;7.48;100.00
64544;BME280;50936;51.660;5.616;2023-02-14T10:24:27;103022.03;;;7.91;100.00
64544;BME280;50936;51.660;5.616;2023-02-14T10:27:11;103019.47;;;8.22;100.00
64544;BME280;50936;51.660;5.616;2023-02-14T10:29:55;103015.41;;;8.43;100.00
64544;BME280;50936;51.660;5.616;2023-02-14T10:35:10;103009.06;;;8.79;100.00
64544;BME280;50936;51.660;5.616;2023-02-14T10:54:38;102991.84;;;10.30;100.00
64544;BME280;50936;51.660;5.616;2023-02-14T10:57:30;102999.84;;;10.60;100.00
64544;BME280;50936;51.660;5.616;2023-02-14T11:00:07;103003.00;;;10.98;100.00
64544;BME280;50936;51.660;5.616;2023-02-14T11:02:41;102997.53;;;11.25;100.00
64544;BME280;50936;51.660;5.616;2023-02-14T11:05:34;102998.34;;;11.50;100.00
64544;BME280;50936;51.660;5.616;2023-02-14T11:08:21;102992.69;;;11.56;100.00
64544;BME280;50936;51.660;5.616;2023-02-14T11:13:47;102983.41;;;12.08;98.08
64544;BME280;50936;51.660;5.616;2023-02-14T11:16:36;102983.03;;;12.17;96.36
64544;BME280;50936;51.660;5.616;2023-02-14T11:21:53;102973.84;;;11.99;95.76
64544;BME280;50936;51.660;5.616;2023-02-14T11:27:05;102969.53;;;11.71;94.35
64544;BME280;50936;51.660;5.616;2023-02-14T11:29:45;102974.19;;;11.68;94.61
64544;BME280;50936;51.660;5.616;2023-02-14T11:32:23;102974.06;;;11.71;94.00
64544;BME280;50936;51.660;5.616;2023-02-14T11:37:48;102958.78;;;11.92;94.69
64544;BME280;50936;51.660;5.616;2023-02-14T11:40:36;102959.03;;;12.08;94.10
64544;BME280;50936;51.660;5.616;2023-02-14T11:45:47;102945.00;;;12.41;88.97
64544;BME280;50936;51.660;5.616;2023-02-14T11:51:05;102938.22;;;12.51;91.24
64544;BME280;50936;51.660;5.616;2023-02-14T11:53:55;102941.25;;;12.84;86.08
64544;BME280;50936;51.660;5.616;2023-02-14T11:56:51;102934.91;;;13.04;87.68
64544;BME280;50936;51.660;5.616;2023-02-14T11:59:28;102925.88;;;13.23;87.32
64544;BME280;50936;51.660;5.616;2023-02-14T12:01:59;102927.34;;;13.30;87.94
64544;BME280;50936;51.660;5.616;2023-02-14T12:04:34;102919.16;;;13.51;86.72
64544;BME280;50936;51.660;5.616;2023-02-14T12:07:17;102913.22;;;13.79;81.18
64544;BME280;50936;51.660;5.616;2023-02-14T12:10:07;102914.78;;;14.02;80.26
64544;BME280;50936;51.660;5.616;2023-02-14T12:15:39;102911.97;;;14.73;78.17
64544;BME280;50936;51.660;5.616;2023-02-14T12:21:35;102904.31;;;14.97;74.94
64544;BME280;50936;51.660;5.616;2023-02-14T12:24:15;102899.34;;;15.06;74.14
64544;BME280;50936;51.660;5.616;2023-02-14T12:27:02;102894.97;;;15.19;72.05
64544;BME280;50936;51.660;5.616;2023-02-14T12:29:40;102892.91;;;15.07;73.82
64544;BME280;50936;51.660;5.616;2023-02-14T12:32:25;102889.25;;;15.08;74.16
64544;BME280;50936;51.660;5.616;2023-02-14T12:35:18;102889.03;;;15.11;71.45
64544;BME280;50936;51.660;5.616;2023-02-14T12:38:23;102890.97;;;15.09;71.76
64544;BME280;50936;51.660;5.616;2023-02-14T12:41:24;102881.75;;;14.95;74.03
64544;BME280;50936;51.660;5.616;2023-02-14T12:47:39;102872.47;;;14.66;72.77
64544;BME280;50936;51.660;5.616;2023-02-14T12:53:52;102858.81;;;14.68;75.12
64544;BME280;50936;51.660;5.616;2023-02-14T12:56:54;102854.91;;;14.89;75.65
64544;BME280;50936;51.660;5.616;2023-02-14T12:59:51;102844.81;;;15.23;72.32
64544;BME280;50936;51.660;5.616;2023-02-14T13:02:45;102829.88;;;15.46;71.28
64544;BME280;50936;51.660;5.616;2023-02-14T13:05:39;102835.97;;;15.66;66.62
64544;BME280;50936;51.660;5.616;2023-02-14T13:22:31;102833.19;;;16.57;62.17
64544;BME280;50936;51.660;5.616;2023-02-14T13:25:03;102822.44;;;16.53;61.16
64544;BME280;50936;51.660;5.616;2023-02-14T13:27:39;102820.53;;;16.41;60.08
64544;BME280;50936;51.660;5.616;2023-02-14T13:30:20;102814.47;;;16.22;60.78
64544;BME280;50936;51.660;5.616;2023-02-14T13:32:56;102805.78;;;16.15;59.32
64544;BME280;50936;51.660;5.616;2023-02-14T13:35:28;102800.59;;;15.96;60.12
64544;BME280;50936;51.660;5.616;2023-02-14T13:38:01;102799.91;;;15.92;60.71
64544;BME280;50936;51.660;5.616;2023-02-14T13:40:33;102797.94;;;15.94;60.53
64544;BME280;50936;51.660;5.616;2023-02-14T13:43:01;102789.91;;;16.07;61.07
64544;BME280;50936;51.660;5.616;2023-02-14T13:50:55;102784.66;;;16.76;59.33
64544;BME280;50936;51.660;5.616;2023-02-14T13:58:49;102786.03;;;16.83;56.71
64544;BME280;50936;51.660;5.616;2023-02-14T14:01:41;102778.53;;;16.72;57.63
64544;BME280;50936;51.660;5.616;2023-02-14T14:17:40;102763.44;;;16.52;59.54
64544;BME280;50936;51.660;5.616;2023-02-14T14:22:56;102760.88;;;16.78;60.81
64544;BME280;50936;51.660;5.616;2023-02-14T14:25:33;102758.50;;;17.01;58.66
64544;BME280;50936;51.660;5.616;2023-02-14T14:28:09;102759.88;;;16.93;58.44
64544;BME280;50936;51.660;5.616;2023-02-14T14:30:41;102751.50;;;16.82;58.98
64544;BME280;50936;51.660;5.616;2023-02-14T14:33:26;102751.50;;;16.82;59.70
64544;BME280;50936;51.660;5.616;2023-02-14T14:36:03;102758.50;;;17.01;57.00
64544;BME280;50936;51.660;5.616;2023-02-14T14:38:45;102763.00;;;17.02;56.60
64544;BME280;50936;51.660;5.616;2023-02-14T14:41:15;102759.88;;;16.93;58.84
64544;BME280;50936;51.660;5.616;2023-02-14T14:43:42;102752.75;;;17.05;58.94
64544;BME280;50936;51.660;5.616;2023-02-14T14:46:11;102750.59;;;17.23;56.93
64544;BME280;50936;51.660;5.616;2023-02-14T14:48:42;102752.81;;;17.18;55.61
64544;BME280;50936;51.660;5.616;2023-02-14T14:51:28;102746.03;;;16.82;56.73
64544;BME280;50936;51.660;5.616;2023-02-14T14:54:18;102745.91;;;16.57;58.75
64544;BME280;50936;51.660;5.616;2023-02-14T14:56:53;102741.91;;;16.48;60.08
64544;BME280;50936;51.660;5.616;2023-02-14T15:01:54;102744.25;;;16.40;60.11
64544;BME280;50936;51.660;5.616;2023-02-14T15:04:31;102734.22;;;16.40;59.07
64544;BME280;50936;51.660;5.616;2023-02-14T15:09:46;102740.25;;;16.31;60.91
64544;BME280;50936;51.660;5.616;2023-02-14T15:12:17;102742.78;;;16.48;58.76
64544;BME280;50936;51.660;5.616;2023-02-14T15:15:10;102749.03;;;16.50;57.90
64544;BME280;50936;51.660;5.616;2023-02-14T15:17:39;102743.34;;;16.39;58.50
64544;BME280;50936;51.660;5.616;2023-02-14T15:20:19;102743.00;;;16.31;60.18
64544;BME280;50936;51.660;5.616;2023-02-14T15:22:50;102744.44;;;16.36;60.04
64544;BME280;50936;51.660;5.616;2023-02-14T15:25:25;102747.84;;;16.40;58.91
64544;BME280;50936;51.660;5.616;2023-02-14T15:27:56;102733.03;;;16.30;59.57
64544;BME280;50936;51.660;5.616;2023-02-14T15:30:31;102739.50;;;16.29;58.97
64544;BME280;50936;51.660;5.616;2023-02-14T15:33:04;102735.41;;;16.22;58.79
64544;BME280;50936;51.660;5.616;2023-02-14T15:35:38;102736.25;;;16.22;57.89
64544;BME280;50936;51.660;5.616;2023-02-14T15:38:09;102739.66;;;16.11;58.85
64544;BME280;50936;51.660;5.616;2023-02-14T15:40:41;102738.13;;;16.07;59.61
64544;BME280;50936;51.660;5.616;2023-02-14T15:43:30;102733.75;;;16.05;58.67
64544;BME280;50936;51.660;5.616;2023-02-14T15:48:43;102735.28;;;15.64;59.07
64544;BME280;50936;51.660;5.616;2023-02-14T15:51:21;102731.31;;;15.39;60.02
64544;BME280;50936;51.660;5.616;2023-02-14T15:56:27;102720.22;;;15.12;60.73
64544;BME280;50936;51.660;5.616;2023-02-14T16:01:58;102716.50;;;14.83;62.48
64544;BME280;50936;51.660;5.616;2023-02-14T16:04:31;102715.78;;;14.79;62.62